sensor_id;sensor_type;location;lat;lon;timestamp;pressure;altitude;pressure_sealevel;temperature;humidity
7888;BME280;3989;48.810;9.208;2022-07-25T00:00:36;98559.09;;;21.39;100.00
7888;BME280;3989;48.810;9.208;2022-07-25T00:03:06;98523.09;;;21.22;100.00
7888;BME280;3989;48.810;9.208;2022-07-25T00:05:32;98520.09;;;21.24;100.00
7888;BME280;3989;48.810;9.208;2022-07-25T00:07:59;98408.25;;;20.52;100.00
7888;BME280;3989;48.810;9.208;2022-07-25T00:10:26;98436.13;;;20.69;100.00
7888;BME280;3989;48.810;9.208;2022-07-25T00:12:53;98404.22;;;20.54;100.00
7888;BME280;3989;48.810;9.208;2022-07-25T00:15:19;98468.38;;;20.87;100.00
7888;BME280;3989;48.810;9.208;2022-07-25T00:17:47;98494.09;;;21.06;100.00
7888;BME280;3989;48.810;9.208;2022-07-25T00:20:23;98532.72;;;21.35;100.00
7888;BME280;3989;48.810;9.208;2022-07-25T00:22:51;98401.00;;;20.57;100.00
7888;BME280;3989;48.810;9.208;2022-07-25T00:25:18;98483.75;;;21.03;100.00
7888;BME280;3989;48.810;9.208;2022-07-25T00:27:45;98534.31;;;21.31;100.00
7888;BME280;3989;48.810;9.208;2022-07-25T00:30:12;98470.31;;;20.91;100.00
7888;BME280;3989;48.810;9.208;2022-07-25T00:32:39;98535.13;;;21.31;100.00
7888;BME280;3989;48.810;9.208;2022-07-25T00:35:07;98512.16;;;21.17;100.00
7888;BME280;3989;48.810;9.208;2022-07-25T00:37:34;98525.94;;;21.32;100.00
7888;BME280;3989;48.810;9.208;2022-07-25T00:40:01;98532.41;;;21.31;100.00
7888;BME280;3989;48.810;9.208;2022-07-25T00:42:27;98468.38;;;20.87;100.00
7888;BME280;3989;48.810;9.208;2022-07-25T00:44:55;98516.44;;;21.13;100.00
7888;BME280;3989;48.810;9.208;2022-07-25T00:47:22;98543.97;;;21.22;100.00
7888;BME280;3989;48.810;9.208;2022-07-25T00:49:48;98500.03;;;21.03;100.00
7888;BME280;3989;48.810;9.208;2022-07-25T00:52:16;98474.22;;;20.79;100.00
7888;BME280;3989;48.810;9.208;2022-07-25T00:54:43;98524.75;;;21.07;100.00
7888;BME280;3989;48.810;9.208;2022-07-25T00:57:10;98413.41;;;20.31;100.00
7888;BME280;3989;48.810;9.208;2022-07-25T00:59:36;98525.91;;;21.11;100.00
7888;BME280;3989;48.810;9.208;2022-07-25T01:02:03;98504.75;;;20.91;100.00
7888;BME280;3989;48.810;9.208;2022-07-25T01:04:30;98478.25;;;20.76;100.00
7888;BME280;3989;48.810;9.208;2022-07-25T01:06:57;98511.06;;;20.97;100.00
7888;BME280;3989;48.810;9.208;2022-07-25T01:09:26;98518.13;;;20.98;100.00
7888;BME280;3989;48.810;9.208;2022-07-25T01:11:53;98530.44;;;21.05;100.00
7888;BME280;3989;48.810;9.208;2022-07-25T01:14:20;98386.69;;;20.23;100.00
7888;BME280;3989;48.810;9.208;2022-07-25T01:16:47;98525.66;;;21.12;100.00
7888;BME280;3989;48.810;9.208;2022-07-25T01:19:14;98497.19;;;20.93;100.00
7888;BME280;3989;48.810;9.208;2022-07-25T01:21:42;98522.47;;;21.15;100.00
7888;BME280;3989;48.810;9.208;2022-07-25T01:24:09;98374.41;;;20.16;100.00
7888;BME280;3989;48.810;9.208;2022-07-25T01:26:36;98426.31;;;20.46;100.00
7888;BME280;3989;48.810;9.208;2022-07-25T01:29:03;98524.56;;;20.91;100.00
7888;BME280;3989;48.810;9.208;2022-07-25T01:31:30;98500.78;;;20.77;100.00
7888;BME280;3989;48.810;9.208;2022-07-25T01:33:57;98286.97;;;19.44;100.00
7888;BME280;3989;48.810;9.208;2022-07-25T01:36:24;98409.31;;;20.12;100.00
7888;BME280;3989;48.810;9.208;2022-07-25T01:38:52;98511.47;;;20.67;100.00
7888;BME280;3989;48.810;9.208;2022-07-25T01:41:18;98498.28;;;20.54;100.00
7888;BME280;3989;48.810;9.208;2022-07-25T01:43:45;98491.47;;;20.51;100.00
7888;BME280;3989;48.810;9.208;2022-07-25T01:46:12;98499.09;;;20.54;100.00
7888;BME280;3989;48.810;9.208;2022-07-25T01:48:39;98438.19;;;20.07;100.00
7888;BME280;3989;48.810;9.208;2022-07-25T01:51:06;98498.78;;;20.51;100.00
7888;BME280;3989;48.810;9.208;2022-07-25T01:53:34;98438.50;;;20.10;100.00
7888;BME280;3989;48.810;9.208;2022-07-25T01:56:03;98493.69;;;20.54;100.00
7888;BME280;3989;48.810;9.208;2022-07-25T01:58:30;98504.19;;;20.51;100.00
7888;BME280;3989;48.810;9.208;2022-07-25T02:00:56;98412.84;;;19.96;100.00
7888;BME280;3989;48.810;9.208;2022-07-25T02:03:23;98498.44;;;20.47;100.00
7888;BME280;3989;48.810;9.208;2022-07-25T02:05:56;98445.91;;;20.15;100.00
7888;BME280;3989;48.810;9.208;2022-07-25T02:08:24;98488.00;;;20.39;100.00
7888;BME280;3989;48.810;9.208;2022-07-25T02:10:51;98502.34;;;20.34;100.00
7888;BME280;3989;48.810;9.208;2022-07-25T02:13:19;98317.03;;;19.30;100.00
7888;BME280;3989;48.810;9.208;2022-07-25T02:15:46;98466.59;;;20.21;100.00
7888;BME280;3989;48.810;9.208;2022-07-25T02:18:13;98268.97;;;18.87;100.00
7888;BME280;3989;48.810;9.208;2022-07-25T02:20:39;98325.47;;;19.34;100.00
7888;BME280;3989;48.810;9.208;2022-07-25T02:23:07;98434.59;;;20.01;100.00
7888;BME280;3989;48.810;9.208;2022-07-25T02:25:33;98433.25;;;20.04;100.00
7888;BME280;3989;48.810;9.208;2022-07-25T02:28:00;98424.97;;;19.93;100.00
7888;BME280;3989;48.810;9.208;2022-07-25T02:30:28;98345.69;;;19.43;100.00
7888;BME280;3989;48.810;9.208;2022-07-25T02:32:55;98443.22;;;19.98;100.00
7888;BME280;3989;48.810;9.208;2022-07-25T02:35:21;98423.09;;;19.94;100.00
7888;BME280;3989;48.810;9.208;2022-07-25T02:37:48;98388.72;;;19.61;100.00
7888;BME280;3989;48.810;9.208;2022-07-25T02:40:14;98470.78;;;20.12;100.00
7888;BME280;3989;48.810;9.208;2022-07-25T02:42:41;98460.34;;;20.04;100.00
7888;BME280;3989;48.810;9.208;2022-07-25T02:45:08;98397.78;;;19.67;100.00
7888;BME280;3989;48.810;9.208;2022-07-25T02:47:37;98468.91;;;20.12;100.00
7888;BME280;3989;48.810;9.208;2022-07-25T02:50:04;98450.19;;;20.11;100.00
7888;BME280;3989;48.810;9.208;2022-07-25T02:52:31;98448.13;;;20.01;100.00
7888;BME280;3989;48.810;9.208;2022-07-25T02:54:58;98452.81;;;20.06;100.00
7888;BME280;3989;48.810;9.208;2022-07-25T02:57:25;98416.88;;;19.77;100.00
7888;BME280;3989;48.810;9.208;2022-07-25T02:59:51;98429.34;;;19.78;100.00
7888;BME280;3989;48.810;9.208;2022-07-25T03:02:18;98441.66;;;19.85;100.00
7888;BME280;3989;48.810;9.208;2022-07-25T03:04:46;98464.47;;;19.89;100.00
7888;BME280;3989;48.810;9.208;2022-07-25T03:07:13;98364.00;;;19.24;100.00
7888;BME280;3989;48.810;9.208;2022-07-25T03:09:39;98338.56;;;19.09;100.00
7888;BME280;3989;48.810;9.208;2022-07-25T03:12:06;98446.00;;;19.70;100.00
7888;BME280;3989;48.810;9.208;2022-07-25T03:14:33;98431.81;;;19.63;100.00
7888;BME280;3989;48.810;9.208;2022-07-25T03:17:00;98375.38;;;19.26;100.00
7888;BME280;3989;48.810;9.208;2022-07-25T03:19:26;98397.72;;;19.33;100.00
7888;BME280;3989;48.810;9.208;2022-07-25T03:21:54;98455.34;;;19.79;100.00
7888;BME280;3989;48.810;9.208;2022-07-25T03:24:21;98454.19;;;19.75;100.00
7888;BME280;3989;48.810;9.208;2022-07-25T03:26:47;98352.19;;;19.14;100.00
7888;BME280;3989;48.810;9.208;2022-07-25T03:29:14;98365.47;;;19.15;100.00
7888;BME280;3989;48.810;9.208;2022-07-25T03:31:41;98436.88;;;19.59;100.00
7888;BME280;3989;48.810;9.208;2022-07-25T03:34:07;98421.84;;;19.52;100.00
7888;BME280;3989;48.810;9.208;2022-07-25T03:36:34;98433.94;;;19.61;100.00
7888;BME280;3989;48.810;9.208;2022-07-25T03:39:02;98242.31;;;18.34;100.00
7888;BME280;3989;48.810;9.208;2022-07-25T03:41:29;98411.13;;;19.40;100.00
7888;BME280;3989;48.810;9.208;2022-07-25T03:43:55;98425.16;;;19.54;100.00
7888;BME280;3989;48.810;9.208;2022-07-25T03:46:22;98384.66;;;19.30;100.00
7888;BME280;3989;48.810;9.208;2022-07-25T03:48:49;98411.78;;;19.47;100.00
7888;BME280;3989;48.810;9.208;2022-07-25T03:51:15;98383.47;;;19.38;100.00
7888;BME280;3989;48.810;9.208;2022-07-25T03:53:42;98418.44;;;19.56;100.00
7888;BME280;3989;48.810;9.208;2022-07-25T03:56:28;98422.28;;;19.60;100.00
7888;BME280;3989;48.810;9.208;2022-07-25T03:58:55;98209.91;;;18.34;100.00
7888;BME280;3989;48.810;9.208;2022-07-25T04:01:22;98401.69;;;19.59;100.00
7888;BME280;3989;48.810;9.208;2022-07-25T04:03:48;98413.75;;;19.68;100.00
7888;BME280;3989;48.810;9.208;2022-07-25T04:06:15;98406.44;;;19.69;100.00
7888;BME280;3989;48.810;9.208;2022-07-25T04:08:42;98416.78;;;19.72;100.00
7888;BME280;3989;48.810;9.208;2022-07-25T04:11:08;98360.03;;;19.44;100.00
7888;BME280;3989;48.810;9.208;2022-07-25T04:13:37;98318.25;;;19.23;100.00
7888;BME280;3989;48.810;9.208;2022-07-25T04:16:04;98409.41;;;19.84;100.00
7888;BME280;3989;48.810;9.208;2022-07-25T04:18:31;98274.16;;;19.06;100.00
7888;BME280;3989;48.810;9.208;2022-07-25T04:20:57;98405.78;;;19.95;100.00
7888;BME280;3989;48.810;9.208;2022-07-25T04:23:24;98371.91;;;19.76;100.00
7888;BME280;3989;48.810;9.208;2022-07-25T04:25:51;98399.75;;;20.10;100.00
7888;BME280;3989;48.810;9.208;2022-07-25T04:28:17;98281.28;;;19.45;100.00
7888;BME280;3989;48.810;9.208;2022-07-25T04:30:45;98426.69;;;20.33;100.00
7888;BME280;3989;48.810;9.208;2022-07-25T04:33:12;98386.22;;;20.26;100.00
7888;BME280;3989;48.810;9.208;2022-07-25T04:35:39;98271.56;;;19.82;100.00
7888;BME280;3989;48.810;9.208;2022-07-25T04:38:06;98394.50;;;20.80;100.00
7888;BME280;3989;48.810;9.208;2022-07-25T04:40:32;98368.97;;;20.76;100.00
7888;BME280;3989;48.810;9.208;2022-07-25T04:42:59;98395.84;;;21.04;100.00
7888;BME280;3989;48.810;9.208;2022-07-25T04:45:26;98376.84;;;21.04;100.00
7888;BME280;3989;48.810;9.208;2022-07-25T04:47:54;98400.69;;;21.24;100.00
7888;BME280;3989;48.810;9.208;2022-07-25T04:50:21;98365.47;;;21.07;100.00
7888;BME280;3989;48.810;9.208;2022-07-25T04:52:48;98408.50;;;21.42;100.00
7888;BME280;3989;48.810;9.208;2022-07-25T04:55:15;98352.56;;;21.14;100.00
7888;BME280;3989;48.810;9.208;2022-07-25T04:57:41;98394.47;;;21.55;100.00
7888;BME280;3989;48.810;9.208;2022-07-25T05:00:10;98388.81;;;21.62;100.00
7888;BME280;3989;48.810;9.208;2022-07-25T05:02:37;98356.44;;;21.55;100.00
7888;BME280;3989;48.810;9.208;2022-07-25T05:05:06;98343.97;;;21.54;100.00
7888;BME280;3989;48.810;9.208;2022-07-25T05:07:33;98365.59;;;21.76;100.00
7888;BME280;3989;48.810;9.208;2022-07-25T05:09:59;98382.66;;;22.03;100.00
7888;BME280;3989;48.810;9.208;2022-07-25T05:12:26;98340.66;;;21.84;100.00
7888;BME280;3989;48.810;9.208;2022-07-25T05:14:53;98379.19;;;22.18;100.00
7888;BME280;3989;48.810;9.208;2022-07-25T05:17:20;98377.91;;;22.30;100.00
7888;BME280;3989;48.810;9.208;2022-07-25T05:19:46;98396.22;;;22.50;100.00
7888;BME280;3989;48.810;9.208;2022-07-25T05:22:14;98393.56;;;22.60;100.00
7888;BME280;3989;48.810;9.208;2022-07-25T05:24:41;98379.13;;;22.60;100.00
7888;BME280;3989;48.810;9.208;2022-07-25T05:27:08;98401.56;;;22.82;100.00
7888;BME280;3989;48.810;9.208;2022-07-25T05:29:34;98372.16;;;22.79;100.00
7888;BME280;3989;48.810;9.208;2022-07-25T05:32:01;98380.91;;;22.86;100.00
7888;BME280;3989;48.810;9.208;2022-07-25T05:34:27;98346.34;;;22.86;100.00
7888;BME280;3989;48.810;9.208;2022-07-25T05:36:54;98283.97;;;22.60;100.00
7888;BME280;3989;48.810;9.208;2022-07-25T05:39:22;98352.13;;;23.15;100.00
7888;BME280;3989;48.810;9.208;2022-07-25T05:41:48;98371.50;;;23.39;100.00
7888;BME280;3989;48.810;9.208;2022-07-25T05:44:15;98390.88;;;23.68;100.00
7888;BME280;3989;48.810;9.208;2022-07-25T05:46:41;98354.09;;;23.60;100.00
7888;BME280;3989;48.810;9.208;2022-07-25T05:49:08;98391.41;;;23.90;100.00
7888;BME280;3989;48.810;9.208;2022-07-25T05:51:35;98380.19;;;24.01;100.00
7888;BME280;3989;48.810;9.208;2022-07-25T05:54:01;98374.50;;;24.03;100.00
7888;BME280;3989;48.810;9.208;2022-07-25T05:56:29;98267.22;;;23.43;100.00
7888;BME280;3989;48.810;9.208;2022-07-25T05:58:56;98379.34;;;24.31;98.34
7888;BME280;3989;48.810;9.208;2022-07-25T06:01:23;98373.88;;;24.41;96.41
7888;BME280;3989;48.810;9.208;2022-07-25T06:03:49;98370.81;;;24.53;94.19
7888;BME280;3989;48.810;9.208;2022-07-25T06:06:16;98365.34;;;24.63;90.30
7888;BME280;3989;48.810;9.208;2022-07-25T06:08:42;98360.13;;;24.72;90.59
7888;BME280;3989;48.810;9.208;2022-07-25T06:11:09;98337.22;;;24.68;90.04
7888;BME280;3989;48.810;9.208;2022-07-25T06:13:38;98360.59;;;24.94;89.03
7888;BME280;3989;48.810;9.208;2022-07-25T06:16:04;98370.06;;;25.06;87.04
7888;BME280;3989;48.810;9.208;2022-07-25T06:18:31;98313.69;;;24.82;85.93
7888;BME280;3989;48.810;9.208;2022-07-25T06:20:58;98351.38;;;25.24;82.98
7888;BME280;3989;48.810;9.208;2022-07-25T06:23:24;98360.63;;;25.33;83.13
7888;BME280;3989;48.810;9.208;2022-07-25T06:25:51;98357.50;;;25.44;80.78
7888;BME280;3989;48.810;9.208;2022-07-25T06:28:18;98350.91;;;25.55;79.38
7888;BME280;3989;48.810;9.208;2022-07-25T06:30:46;98356.00;;;25.67;77.19
7888;BME280;3989;48.810;9.208;2022-07-25T06:33:13;98346.06;;;25.76;76.81
7888;BME280;3989;48.810;9.208;2022-07-25T06:35:39;98330.22;;;25.78;75.09
7888;BME280;3989;48.810;9.208;2022-07-25T06:38:06;98297.25;;;25.65;73.83
7888;BME280;3989;48.810;9.208;2022-07-25T06:40:33;98342.81;;;26.03;73.19
7888;BME280;3989;48.810;9.208;2022-07-25T06:42:59;98345.94;;;26.15;71.64
7888;BME280;3989;48.810;9.208;2022-07-25T06:45:26;98341.50;;;26.24;70.13
7888;BME280;3989;48.810;9.208;2022-07-25T06:47:54;98306.59;;;26.11;69.44
7888;BME280;3989;48.810;9.208;2022-07-25T06:50:20;98322.81;;;26.31;69.20
7888;BME280;3989;48.810;9.208;2022-07-25T06:52:47;98333.81;;;26.50;67.33
7888;BME280;3989;48.810;9.208;2022-07-25T06:55:14;98243.44;;;26.13;67.12
7888;BME280;3989;48.810;9.208;2022-07-25T06:57:41;98346.47;;;26.88;64.84
7888;BME280;3989;48.810;9.208;2022-07-25T07:00:11;98336.94;;;26.86;64.11
7888;BME280;3989;48.810;9.208;2022-07-25T07:02:47;98351.53;;;27.00;63.76
7888;BME280;3989;48.810;9.208;2022-07-25T07:05:15;98351.16;;;27.06;62.03
7888;BME280;3989;48.810;9.208;2022-07-25T07:07:42;98343.69;;;27.12;62.74
7888;BME280;3989;48.810;9.208;2022-07-25T07:10:09;98265.47;;;26.87;62.27
7888;BME280;3989;48.810;9.208;2022-07-25T07:12:36;98339.59;;;27.47;60.43
7888;BME280;3989;48.810;9.208;2022-07-25T07:15:03;98351.81;;;27.54;59.21
7888;BME280;3989;48.810;9.208;2022-07-25T07:17:30;98311.97;;;27.43;59.72
7888;BME280;3989;48.810;9.208;2022-07-25T07:19:56;98283.38;;;27.31;58.75
7888;BME280;3989;48.810;9.208;2022-07-25T07:22:24;98347.22;;;27.82;57.87
7888;BME280;3989;48.810;9.208;2022-07-25T07:24:51;98328.16;;;27.91;58.18
7888;BME280;3989;48.810;9.208;2022-07-25T07:27:18;98258.34;;;27.70;57.68
7888;BME280;3989;48.810;9.208;2022-07-25T07:29:47;98332.06;;;28.31;56.64
7888;BME280;3989;48.810;9.208;2022-07-25T07:32:14;98284.84;;;28.20;55.56
7888;BME280;3989;48.810;9.208;2022-07-25T07:34:41;98334.53;;;28.59;54.52
7888;BME280;3989;48.810;9.208;2022-07-25T07:37:07;98336.56;;;28.67;54.28
7888;BME280;3989;48.810;9.208;2022-07-25T07:39:35;98312.16;;;28.66;54.76
7888;BME280;3989;48.810;9.208;2022-07-25T07:42:02;98323.84;;;28.85;53.88
7888;BME280;3989;48.810;9.208;2022-07-25T07:44:29;98280.84;;;28.67;53.09
7888;BME280;3989;48.810;9.208;2022-07-25T07:46:55;98305.38;;;28.99;52.77
7888;BME280;3989;48.810;9.208;2022-07-25T07:49:25;98281.09;;;29.15;52.59
7888;BME280;3989;48.810;9.208;2022-07-25T07:51:52;98273.06;;;29.18;51.71
7888;BME280;3989;48.810;9.208;2022-07-25T07:54:19;98306.88;;;29.63;51.68
7888;BME280;3989;48.810;9.208;2022-07-25T07:57:04;98303.94;;;29.82;50.66
7888;BME280;3989;48.810;9.208;2022-07-25T07:59:31;98240.72;;;29.38;50.34
7888;BME280;3989;48.810;9.208;2022-07-25T08:01:57;98274.38;;;29.65;50.14
7888;BME280;3989;48.810;9.208;2022-07-25T08:04:24;98315.53;;;30.01;50.08
7888;BME280;3989;48.810;9.208;2022-07-25T08:06:51;98287.03;;;29.97;49.36
7888;BME280;3989;48.810;9.208;2022-07-25T08:09:17;98303.47;;;30.19;48.91
7888;BME280;3989;48.810;9.208;2022-07-25T08:11:44;98292.16;;;30.21;47.71
7888;BME280;3989;48.810;9.208;2022-07-25T08:14:12;98306.28;;;30.37;47.60
7888;BME280;3989;48.810;9.208;2022-07-25T08:16:38;98247.25;;;30.12;47.70
7888;BME280;3989;48.810;9.208;2022-07-25T08:19:05;98308.00;;;30.55;47.13
7888;BME280;3989;48.810;9.208;2022-07-25T08:21:32;98304.59;;;30.66;47.51
7888;BME280;3989;48.810;9.208;2022-07-25T08:23:58;98310.28;;;30.70;46.86
7888;BME280;3989;48.810;9.208;2022-07-25T08:26:25;98315.19;;;30.82;46.98
7888;BME280;3989;48.810;9.208;2022-07-25T08:28:52;98304.53;;;30.97;46.83
7888;BME280;3989;48.810;9.208;2022-07-25T08:31:20;98302.28;;;31.08;45.75
7888;BME280;3989;48.810;9.208;2022-07-25T08:33:47;98308.59;;;31.26;45.80
7888;BME280;3989;48.810;9.208;2022-07-25T08:36:13;98272.94;;;31.03;44.70
7888;BME280;3989;48.810;9.208;2022-07-25T08:38:40;98280.38;;;31.29;44.01
7888;BME280;3989;48.810;9.208;2022-07-25T08:41:06;98293.50;;;31.49;44.20
7888;BME280;3989;48.810;9.208;2022-07-25T08:43:34;98298.50;;;31.72;43.40
7888;BME280;3989;48.810;9.208;2022-07-25T08:46:04;98279.56;;;31.62;42.71
7888;BME280;3989;48.810;9.208;2022-07-25T08:48:32;98262.34;;;31.65;42.97
7888;BME280;3989;48.810;9.208;2022-07-25T08:51:01;98306.06;;;32.01;42.66
7888;BME280;3989;48.810;9.208;2022-07-25T08:53:28;98306.19;;;32.13;42.26
7888;BME280;3989;48.810;9.208;2022-07-25T08:55:55;98285.78;;;31.97;41.96
7888;BME280;3989;48.810;9.208;2022-07-25T08:58:22;98228.28;;;31.61;41.68
7888;BME280;3989;48.810;9.208;2022-07-25T09:00:48;98306.88;;;32.02;41.24
7888;BME280;3989;48.810;9.208;2022-07-25T09:03:15;98296.34;;;32.04;41.56
7888;BME280;3989;48.810;9.208;2022-07-25T09:05:43;98281.22;;;32.01;41.42
7888;BME280;3989;48.810;9.208;2022-07-25T09:08:12;98286.81;;;32.31;40.58
7888;BME280;3989;48.810;9.208;2022-07-25T09:10:39;98296.47;;;32.45;39.44
7888;BME280;3989;48.810;9.208;2022-07-25T09:13:11;98291.53;;;32.51;39.14
7888;BME280;3989;48.810;9.208;2022-07-25T09:15:41;98298.56;;;32.57;38.89
7888;BME280;3989;48.810;9.208;2022-07-25T09:18:10;98283.91;;;32.56;39.07
7888;BME280;3989;48.810;9.208;2022-07-25T09:20:40;98282.09;;;32.60;39.38
7888;BME280;3989;48.810;9.208;2022-07-25T09:23:08;98291.56;;;32.80;39.37
7888;BME280;3989;48.810;9.208;2022-07-25T09:25:36;98242.78;;;32.63;37.95
7888;BME280;3989;48.810;9.208;2022-07-25T09:28:10;98223.75;;;32.62;35.84
7888;BME280;3989;48.810;9.208;2022-07-25T09:30:38;98282.69;;;33.16;35.87
7888;BME280;3989;48.810;9.208;2022-07-25T09:33:06;98284.91;;;33.22;35.39
7888;BME280;3989;48.810;9.208;2022-07-25T09:35:34;98283.75;;;33.44;35.36
7888;BME280;3989;48.810;9.208;2022-07-25T09:38:09;98275.94;;;33.25;34.51
7888;BME280;3989;48.810;9.208;2022-07-25T09:40:36;98248.13;;;33.10;34.62
7888;BME280;3989;48.810;9.208;2022-07-25T09:43:04;98259.84;;;33.28;34.51
7888;BME280;3989;48.810;9.208;2022-07-25T09:45:31;98282.22;;;33.67;34.63
7888;BME280;3989;48.810;9.208;2022-07-25T09:47:59;98244.72;;;33.58;34.36
7888;BME280;3989;48.810;9.208;2022-07-25T09:50:28;98273.50;;;33.77;33.70
7888;BME280;3989;48.810;9.208;2022-07-25T09:52:59;98271.78;;;33.73;34.30
7888;BME280;3989;48.810;9.208;2022-07-25T09:55:28;98279.25;;;33.60;34.59
7888;BME280;3989;48.810;9.208;2022-07-25T09:57:56;98219.97;;;33.08;34.89
7888;BME280;3989;48.810;9.208;2022-07-25T10:00:24;98273.16;;;33.46;35.03
7888;BME280;3989;48.810;9.208;2022-07-25T10:03:04;98277.25;;;33.61;35.30
7888;BME280;3989;48.810;9.208;2022-07-25T10:05:43;98270.16;;;33.72;35.33
7888;BME280;3989;48.810;9.208;2022-07-25T10:08:12;98244.59;;;33.54;35.05
7888;BME280;3989;48.810;9.208;2022-07-25T10:10:41;98267.81;;;33.62;35.09
7888;BME280;3989;48.810;9.208;2022-07-25T10:13:10;98264.25;;;33.73;34.23
7888;BME280;3989;48.810;9.208;2022-07-25T10:15:42;98236.81;;;33.68;34.48
7888;BME280;3989;48.810;9.208;2022-07-25T10:18:09;98257.84;;;33.82;34.86
7888;BME280;3989;48.810;9.208;2022-07-25T10:20:36;98257.84;;;33.82;34.32
7888;BME280;3989;48.810;9.208;2022-07-25T10:23:03;98190.16;;;33.46;34.28
7888;BME280;3989;48.810;9.208;2022-07-25T10:25:30;98254.34;;;33.72;34.31
7888;BME280;3989;48.810;9.208;2022-07-25T10:28:07;98255.94;;;33.73;34.30
7888;BME280;3989;48.810;9.208;2022-07-25T10:30:36;98244.69;;;33.78;34.81
7888;BME280;3989;48.810;9.208;2022-07-25T10:33:04;98199.63;;;33.57;33.75
7888;BME280;3989;48.810;9.208;2022-07-25T10:35:36;98234.09;;;34.05;34.18
7888;BME280;3989;48.810;9.208;2022-07-25T10:38:04;98213.66;;;33.97;33.83
7888;BME280;3989;48.810;9.208;2022-07-25T10:40:33;98237.56;;;34.02;33.00
7888;BME280;3989;48.810;9.208;2022-07-25T10:43:06;98221.50;;;33.83;34.16
7888;BME280;3989;48.810;9.208;2022-07-25T10:45:39;98147.31;;;33.52;33.64
7888;BME280;3989;48.810;9.208;2022-07-25T10:48:07;98236.66;;;34.34;32.89
7888;BME280;3989;48.810;9.208;2022-07-25T10:50:45;98237.13;;;34.36;32.31
7888;BME280;3989;48.810;9.208;2022-07-25T10:53:12;98216.34;;;34.30;32.59
7888;BME280;3989;48.810;9.208;2022-07-25T10:55:38;98211.75;;;34.34;32.25
7888;BME280;3989;48.810;9.208;2022-07-25T10:58:06;98222.09;;;34.61;32.24
7888;BME280;3989;48.810;9.208;2022-07-25T11:00:33;98221.63;;;34.59;32.02
7888;BME280;3989;48.810;9.208;2022-07-25T11:03:08;98219.31;;;34.73;31.85
7888;BME280;3989;48.810;9.208;2022-07-25T11:05:50;98213.84;;;34.77;31.63
7888;BME280;3989;48.810;9.208;2022-07-25T11:08:29;98200.75;;;34.62;31.40
7888;BME280;3989;48.810;9.208;2022-07-25T11:10:56;98216.25;;;34.91;31.29
7888;BME280;3989;48.810;9.208;2022-07-25T11:13:24;98192.16;;;34.79;31.10
7888;BME280;3989;48.810;9.208;2022-07-25T11:15:55;98165.47;;;34.74;30.95
7888;BME280;3989;48.810;9.208;2022-07-25T11:18:30;98202.06;;;35.20;30.60
7888;BME280;3989;48.810;9.208;2022-07-25T11:20:58;98178.03;;;35.24;30.54
7888;BME280;3989;48.810;9.208;2022-07-25T11:23:25;98084.88;;;34.40;30.95
7888;BME280;3989;48.810;9.208;2022-07-25T11:25:51;98162.97;;;34.97;31.14
7888;BME280;3989;48.810;9.208;2022-07-25T11:28:18;98151.44;;;34.55;31.17
7888;BME280;3989;48.810;9.208;2022-07-25T11:30:46;98164.19;;;34.84;30.82
7888;BME280;3989;48.810;9.208;2022-07-25T11:33:13;98177.81;;;34.89;30.19
7888;BME280;3989;48.810;9.208;2022-07-25T11:35:41;98166.72;;;34.89;30.49
7888;BME280;3989;48.810;9.208;2022-07-25T11:38:12;98146.69;;;34.68;30.71
7888;BME280;3989;48.810;9.208;2022-07-25T11:40:41;98150.25;;;34.68;30.73
7888;BME280;3989;48.810;9.208;2022-07-25T11:43:18;98179.50;;;34.94;30.74
7888;BME280;3989;48.810;9.208;2022-07-25T11:45:55;98188.44;;;35.43;29.96
7888;BME280;3989;48.810;9.208;2022-07-25T11:48:29;98186.06;;;36.04;29.10
7888;BME280;3989;48.810;9.208;2022-07-25T11:50:56;98105.63;;;36.07;28.58
7888;BME280;3989;48.810;9.208;2022-07-25T11:53:23;98144.28;;;36.66;27.88
7888;BME280;3989;48.810;9.208;2022-07-25T11:55:51;98159.66;;;36.79;27.74
7888;BME280;3989;48.810;9.208;2022-07-25T11:58:17;98147.06;;;36.86;27.79
7888;BME280;3989;48.810;9.208;2022-07-25T12:00:47;98175.53;;;37.17;27.77
7888;BME280;3989;48.810;9.208;2022-07-25T12:03:16;98011.22;;;35.92;28.17
7888;BME280;3989;48.810;9.208;2022-07-25T12:05:45;98166.34;;;36.98;28.06
7888;BME280;3989;48.810;9.208;2022-07-25T12:08:13;98157.78;;;37.03;28.04
7888;BME280;3989;48.810;9.208;2022-07-25T12:10:40;98145.25;;;37.12;27.63
7888;BME280;3989;48.810;9.208;2022-07-25T12:13:08;98146.53;;;37.18;28.37
7888;BME280;3989;48.810;9.208;2022-07-25T12:15:36;98145.06;;;37.24;27.99
7888;BME280;3989;48.810;9.208;2022-07-25T12:18:05;98173.31;;;37.26;27.80
7888;BME280;3989;48.810;9.208;2022-07-25T12:20:37;98182.13;;;37.09;27.85
7888;BME280;3989;48.810;9.208;2022-07-25T12:23:05;98154.25;;;36.52;28.28
7888;BME280;3989;48.810;9.208;2022-07-25T12:25:35;98177.34;;;36.37;28.41
7888;BME280;3989;48.810;9.208;2022-07-25T12:28:02;98160.06;;;36.27;28.83
7888;BME280;3989;48.810;9.208;2022-07-25T12:30:29;98162.78;;;36.59;28.38
7888;BME280;3989;48.810;9.208;2022-07-25T12:32:57;98163.50;;;36.94;27.90
7888;BME280;3989;48.810;9.208;2022-07-25T12:35:26;98161.53;;;36.95;27.43
7888;BME280;3989;48.810;9.208;2022-07-25T12:37:53;98147.81;;;37.02;27.32
7888;BME280;3989;48.810;9.208;2022-07-25T12:40:20;98141.78;;;37.19;27.66
7888;BME280;3989;48.810;9.208;2022-07-25T12:42:47;98103.16;;;36.75;27.41
7888;BME280;3989;48.810;9.208;2022-07-25T12:45:15;98147.50;;;37.07;27.98
7888;BME280;3989;48.810;9.208;2022-07-25T12:47:42;98139.81;;;36.81;28.20
7888;BME280;3989;48.810;9.208;2022-07-25T12:50:09;98157.66;;;36.61;28.64
7888;BME280;3989;48.810;9.208;2022-07-25T12:52:38;98043.91;;;35.48;29.30
7888;BME280;3989;48.810;9.208;2022-07-25T12:55:05;98155.50;;;36.19;29.27
7888;BME280;3989;48.810;9.208;2022-07-25T12:57:34;98154.97;;;36.14;29.27
7888;BME280;3989;48.810;9.208;2022-07-25T13:00:01;98109.25;;;35.76;29.58
7888;BME280;3989;48.810;9.208;2022-07-25T13:02:27;98154.00;;;36.06;29.57
7888;BME280;3989;48.810;9.208;2022-07-25T13:04:54;98136.53;;;35.90;29.84
7888;BME280;3989;48.810;9.208;2022-07-25T13:07:21;98118.34;;;36.08;29.72
7888;BME280;3989;48.810;9.208;2022-07-25T13:09:49;98137.81;;;36.62;29.20
7888;BME280;3989;48.810;9.208;2022-07-25T13:12:15;98147.81;;;37.44;28.73
7888;BME280;3989;48.810;9.208;2022-07-25T13:14:42;98091.88;;;37.07;28.40
7888;BME280;3989;48.810;9.208;2022-07-25T13:17:09;98139.75;;;37.58;27.97
7888;BME280;3989;48.810;9.208;2022-07-25T13:19:36;98135.84;;;37.43;28.59